createdAt,value
2019-03-04T00:00:41.886Z,11.10
2019-03-04T00:01:18.402Z,11.10
2019-03-04T00:01:54.462Z,11.10
2019-03-04T00:02:29.728Z,11.10
2019-03-04T00:03:05.137Z,11.10
2019-03-04T00:03:39.648Z,11.10
2019-03-04T00:04:14.421Z,11.10
2019-03-04T00:04:49.093Z,11.10
2019-03-04T00:05:23.608Z,11.10
2019-03-04T00:05:58.102Z,11.10
2019-03-04T00:06:32.606Z,11.10
2019-03-04T00:07:07.108Z,11.10
2019-03-04T00:07:41.689Z,11.10
2019-03-04T00:08:16.197Z,11.10
2019-03-04T00:08:50.769Z,11.10
2019-03-04T00:09:25.262Z,11.10
2019-03-04T00:09:59.845Z,11.10
2019-03-04T00:10:34.348Z,11.10
2019-03-04T00:11:08.924Z,11.10
2019-03-04T00:11:43.480Z,11.10
2019-03-04T00:12:18.063Z,11.10
2019-03-04T00:12:52.559Z,11.10
2019-03-04T00:13:27.161Z,11.10
2019-03-04T00:14:01.729Z,11.10
2019-03-04T00:14:36.307Z,11.10
2019-03-04T00:15:10.899Z,11.10
2019-03-04T00:15:45.488Z,11.20
2019-03-04T00:16:20.052Z,11.10
2019-03-04T00:16:54.561Z,11.10
2019-03-04T00:17:29.131Z,11.10
2019-03-04T00:18:03.875Z,11.20
2019-03-04T00:18:38.383Z,11.10
2019-03-04T00:19:12.893Z,11.20
2019-03-04T00:19:47.399Z,11.20
2019-03-04T00:20:21.961Z,11.20
2019-03-04T00:20:56.497Z,11.20
2019-03-04T00:21:31.002Z,11.20
2019-03-04T00:22:05.566Z,11.20
2019-03-04T00:22:40.055Z,11.20
2019-03-04T00:23:14.594Z,11.20
2019-03-04T00:23:49.086Z,11.20
2019-03-04T00:24:23.612Z,11.20
2019-03-04T00:24:58.125Z,11.20
2019-03-04T00:25:32.785Z,11.20
2019-03-04T00:26:07.415Z,11.20
2019-03-04T00:26:41.923Z,11.20
2019-03-04T00:27:16.510Z,11.10
2019-03-04T00:27:51.016Z,11.20
2019-03-04T00:28:25.540Z,11.20
2019-03-04T00:29:00.051Z,11.10
2019-03-04T00:29:34.563Z,11.10
2019-03-04T00:30:10.816Z,11.10
2019-03-04T00:30:48.048Z,11.10
2019-03-04T00:31:22.556Z,11.10
2019-03-04T00:31:57.084Z,11.10
2019-03-04T00:32:31.653Z,11.10
2019-03-04T00:33:06.140Z,11.10
2019-03-04T00:33:40.659Z,11.10
2019-03-04T00:34:15.270Z,11.10
2019-03-04T00:34:49.793Z,11.10
2019-03-04T00:35:25.009Z,11.10
2019-03-04T00:35:59.592Z,11.10
2019-03-04T00:36:34.113Z,11.10
2019-03-04T00:37:08.704Z,11.10
2019-03-04T00:37:43.369Z,11.10
2019-03-04T00:38:17.937Z,11.10
2019-03-04T00:38:52.512Z,11.10
2019-03-04T00:39:27.019Z,11.10
2019-03-04T00:40:01.611Z,11.00
2019-03-04T00:40:36.167Z,11.00
2019-03-04T00:41:10.959Z,11.00
2019-03-04T00:41:45.520Z,11.00
2019-03-04T00:42:20.029Z,10.90
2019-03-04T00:42:54.524Z,11.00
2019-03-04T00:43:29.109Z,10.90
2019-03-04T00:44:04.140Z,11.00
2019-03-04T00:44:38.725Z,11.00
2019-03-04T00:45:14.456Z,10.90
2019-03-04T00:45:49.040Z,10.90
2019-03-04T00:46:23.534Z,11.00
2019-03-04T00:46:58.057Z,11.00
2019-03-04T00:47:32.709Z,11.00
2019-03-04T00:48:07.281Z,11.00
2019-03-04T00:48:41.785Z,11.00
2019-03-04T00:49:16.271Z,10.90
2019-03-04T00:49:50.762Z,11.00
2019-03-04T00:50:25.263Z,11.00
2019-03-04T00:50:59.779Z,11.00
2019-03-04T00:51:34.276Z,11.00
2019-03-04T00:52:08.816Z,11.00
2019-03-04T00:52:43.362Z,11.00
2019-03-04T00:53:17.857Z,11.00
2019-03-04T00:53:52.408Z,11.00
2019-03-04T00:54:26.991Z,11.10
2019-03-04T00:55:01.491Z,11.10
2019-03-04T00:55:35.987Z,11.10
2019-03-04T00:56:10.497Z,11.10
2019-03-04T00:56:45.003Z,11.10
2019-03-04T00:57:19.502Z,11.10
2019-03-04T00:57:54.008Z,11.10
2019-03-04T00:58:28.571Z,11.10
2019-03-04T00:59:03.059Z,11.10
2019-03-04T00:59:37.604Z,11.10
2019-03-04T01:00:16.215Z,11.10
2019-03-04T01:00:50.713Z,11.10
2019-03-04T01:01:25.237Z,11.10
2019-03-04T01:01:59.805Z,11.10
2019-03-04T01:02:34.554Z,11.10
2019-03-04T01:03:09.146Z,11.10
2019-03-04T01:03:43.720Z,11.10
2019-03-04T01:04:18.226Z,11.10
2019-03-04T01:04:52.739Z,11.10
2019-03-04T01:05:27.315Z,11.10
2019-03-04T01:06:03.367Z,11.10
2019-03-04T01:06:38.029Z,11.20
2019-03-04T01:07:12.527Z,11.20
2019-03-04T01:07:47.167Z,11.20
2019-03-04T01:08:21.658Z,11.20
2019-03-04T01:08:56.158Z,11.10
2019-03-04T01:09:30.661Z,11.20
2019-03-04T01:10:08.674Z,11.20
2019-03-04T01:10:43.261Z,11.20
2019-03-04T01:11:17.850Z,11.20
2019-03-04T01:11:52.389Z,11.20
2019-03-04T01:12:26.889Z,11.20
2019-03-04T01:13:01.396Z,11.20
2019-03-04T01:13:35.967Z,11.20
2019-03-04T01:14:10.532Z,11.20
2019-03-04T01:14:45.037Z,11.20
2019-03-04T01:15:22.652Z,11.20
2019-03-04T01:15:57.192Z,11.20
2019-03-04T01:16:31.699Z,11.20
2019-03-04T01:17:06.355Z,11.20
2019-03-04T01:17:40.886Z,11.20
2019-03-04T01:18:15.395Z,11.20
2019-03-04T01:18:49.898Z,11.20
2019-03-04T01:19:24.405Z,11.20
2019-03-04T01:19:58.892Z,11.20
2019-03-04T01:20:33.396Z,11.20
2019-03-04T01:21:07.898Z,11.20
2019-03-04T01:21:42.459Z,11.20
2019-03-04T01:22:16.953Z,11.20
2019-03-04T01:22:51.468Z,11.20
2019-03-04T01:23:26.063Z,11.20
2019-03-04T01:24:00.618Z,11.20
2019-03-04T01:24:35.189Z,11.20
2019-03-04T01:25:12.136Z,11.30
2019-03-04T01:25:46.640Z,11.30
2019-03-04T01:26:21.140Z,11.30
2019-03-04T01:26:55.645Z,11.30
2019-03-04T01:27:30.230Z,11.30
2019-03-04T01:28:04.792Z,11.30
2019-03-04T01:28:39.301Z,11.30
2019-03-04T01:29:13.806Z,11.30
2019-03-04T01:29:48.313Z,11.30
2019-03-04T01:30:23.929Z,11.30
2019-03-04T01:30:58.492Z,11.30
2019-03-04T01:31:33.001Z,11.30
2019-03-04T01:32:07.488Z,11.30
2019-03-04T01:32:41.985Z,11.30
2019-03-04T01:33:16.485Z,11.30
2019-03-04T01:33:50.979Z,11.30
2019-03-04T01:34:25.574Z,11.20
2019-03-04T01:35:00.209Z,11.20
2019-03-04T01:35:34.832Z,11.30
2019-03-04T01:36:09.341Z,11.20
2019-03-04T01:36:43.912Z,11.20
2019-03-04T01:37:18.424Z,11.20
2019-03-04T01:37:52.917Z,11.20
2019-03-04T01:38:27.418Z,11.20
2019-03-04T01:39:01.917Z,11.20
2019-03-04T01:39:36.416Z,11.20
2019-03-04T01:40:19.773Z,11.20
2019-03-04T01:40:54.296Z,11.20
2019-03-04T01:41:28.867Z,11.20
2019-03-04T01:42:03.453Z,11.20
2019-03-04T01:42:37.962Z,11.20
2019-03-04T01:43:12.536Z,11.20
2019-03-04T01:43:47.035Z,11.20
2019-03-04T01:44:21.555Z,11.20
2019-03-04T01:44:56.136Z,11.20
2019-03-04T01:45:30.629Z,11.20
2019-03-04T01:46:05.210Z,11.20
2019-03-04T01:46:39.708Z,11.20
2019-03-04T01:47:14.232Z,11.20
2019-03-04T01:47:48.796Z,11.20
2019-03-04T01:48:23.305Z,11.10
2019-03-04T01:48:57.797Z,11.10
2019-03-04T01:49:32.304Z,11.10
2019-03-04T01:50:09.841Z,11.10
2019-03-04T01:50:44.350Z,11.00
2019-03-04T01:51:18.918Z,11.10
2019-03-04T01:51:53.428Z,11.00
2019-03-04T01:52:27.988Z,11.00
2019-03-04T01:53:02.506Z,11.00
2019-03-04T01:53:37.088Z,11.00
2019-03-04T01:54:11.616Z,10.90
2019-03-04T01:54:46.180Z,10.90
2019-03-04T01:55:20.694Z,10.90
2019-03-04T01:55:55.184Z,10.90
2019-03-04T01:56:29.686Z,10.90
2019-03-04T01:57:04.180Z,10.90
2019-03-04T01:57:38.858Z,10.90
2019-03-04T01:58:13.363Z,10.90
2019-03-04T01:58:48.000Z,10.80
2019-03-04T01:59:22.500Z,10.90
2019-03-04T01:59:56.989Z,10.90
2019-03-04T02:00:31.490Z,10.80
2019-03-04T02:01:06.127Z,10.90
2019-03-04T02:01:40.627Z,10.80
2019-03-04T02:02:15.141Z,10.80
2019-03-04T02:02:49.698Z,10.80
2019-03-04T02:03:24.268Z,10.80
2019-03-04T02:03:58.765Z,10.80
2019-03-04T02:04:33.281Z,10.80
2019-03-04T02:05:08.609Z,10.80
2019-03-04T02:05:43.188Z,10.80
2019-03-04T02:06:19.749Z,10.80
2019-03-04T02:06:56.400Z,10.80
2019-03-04T02:07:31.785Z,10.80
2019-03-04T02:08:06.696Z,10.80
2019-03-04T02:08:41.365Z,10.70
2019-03-04T02:09:15.908Z,10.80
2019-03-04T02:09:50.411Z,10.70
2019-03-04T02:10:24.904Z,10.70
2019-03-04T02:10:59.402Z,10.80
2019-03-04T02:11:33.902Z,10.70
2019-03-04T02:12:08.471Z,10.70
2019-03-04T02:12:42.975Z,10.70
2019-03-04T02:13:17.476Z,10.70
2019-03-04T02:13:51.981Z,10.70
2019-03-04T02:14:26.487Z,10.70
2019-03-04T02:15:01.048Z,10.70
2019-03-04T02:15:35.556Z,10.70
2019-03-04T02:16:10.118Z,10.70
2019-03-04T02:16:44.601Z,10.70
2019-03-04T02:17:19.099Z,10.70
2019-03-04T02:17:53.596Z,10.70
2019-03-04T02:18:28.091Z,10.70
2019-03-04T02:19:02.617Z,10.70
2019-03-04T02:19:37.183Z,10.70
2019-03-04T02:20:14.502Z,10.80
2019-03-04T02:20:49.008Z,10.80
2019-03-04T02:21:23.503Z,10.80
2019-03-04T02:21:58.070Z,10.80
2019-03-04T02:22:32.571Z,10.80
2019-03-04T02:23:07.063Z,10.80
2019-03-04T02:23:41.716Z,10.80
2019-03-04T02:24:26.654Z,10.70
2019-03-04T02:25:01.220Z,10.70
2019-03-04T02:25:44.519Z,10.70
2019-03-04T02:26:19.101Z,10.70
2019-03-04T02:26:54.514Z,10.70
2019-03-04T02:27:29.019Z,10.70
2019-03-04T02:28:03.543Z,10.70
2019-03-04T02:28:38.109Z,10.70
2019-03-04T02:29:12.603Z,10.70
2019-03-04T02:29:47.104Z,10.70
2019-03-04T02:30:24.323Z,10.60
2019-03-04T02:30:58.893Z,10.60
2019-03-04T02:31:33.459Z,10.60
2019-03-04T02:32:07.979Z,10.60
2019-03-04T02:32:42.553Z,10.60
2019-03-04T02:33:17.065Z,10.60
2019-03-04T02:33:51.588Z,10.60
2019-03-04T02:34:26.152Z,10.60
2019-03-04T02:35:00.646Z,10.60
2019-03-04T02:35:35.214Z,10.50
2019-03-04T02:36:09.801Z,10.50
2019-03-04T02:36:44.346Z,10.50
2019-03-04T02:37:18.918Z,10.50
2019-03-04T02:37:53.445Z,10.40
2019-03-04T02:38:28.013Z,10.40
2019-03-04T02:39:02.865Z,10.40
2019-03-04T02:39:37.430Z,10.40
2019-03-04T02:40:12.082Z,10.40
2019-03-04T02:40:46.643Z,10.30
2019-03-04T02:41:21.287Z,10.40
2019-03-04T02:41:55.857Z,10.40
2019-03-04T02:42:30.367Z,10.40
2019-03-04T02:43:04.879Z,10.30
2019-03-04T02:43:39.457Z,10.30
2019-03-04T02:44:13.942Z,10.30
2019-03-04T02:44:48.448Z,10.30
2019-03-04T02:45:23.014Z,10.30
2019-03-04T02:45:57.546Z,10.30
2019-03-04T02:46:32.101Z,10.20
2019-03-04T02:47:06.617Z,10.20
2019-03-04T02:47:41.362Z,10.20
2019-03-04T02:48:15.862Z,10.20
2019-03-04T02:48:50.347Z,10.20
2019-03-04T02:49:24.860Z,10.20
2019-03-04T02:49:59.387Z,10.20
2019-03-04T02:50:33.937Z,10.10
2019-03-04T02:51:08.455Z,10.20
2019-03-04T02:51:42.961Z,10.20
2019-03-04T02:52:17.462Z,10.10
2019-03-04T02:52:51.991Z,10.10
2019-03-04T02:53:26.569Z,10.10
2019-03-04T02:54:01.139Z,10.10
2019-03-04T02:54:35.645Z,10.10
2019-03-04T02:55:10.305Z,10.00
2019-03-04T02:55:44.866Z,10.10
2019-03-04T02:56:19.360Z,10.00
2019-03-04T02:56:53.858Z,10.00
2019-03-04T02:57:28.374Z,10.00
2019-03-04T02:58:02.877Z,10.00
2019-03-04T02:58:37.374Z,10.00
2019-03-04T02:59:12.364Z,10.00
2019-03-04T02:59:46.947Z,10.00
2019-03-04T03:00:21.517Z,10.00
2019-03-04T03:00:56.098Z,10.00
2019-03-04T03:01:30.599Z,10.00
2019-03-04T03:02:06.832Z,10.00
2019-03-04T03:02:41.326Z,10.00
2019-03-04T03:03:15.812Z,10.00
2019-03-04T03:03:50.311Z,10.00
2019-03-04T03:04:24.799Z,9.90
2019-03-04T03:04:59.288Z,9.90
2019-03-04T03:05:33.779Z,9.90
2019-03-04T03:06:08.256Z,9.90
2019-03-04T03:06:42.763Z,9.80
2019-03-04T03:07:17.257Z,9.80
2019-03-04T03:07:51.737Z,9.80
2019-03-04T03:08:26.500Z,9.80
2019-03-04T03:09:00.991Z,9.80
2019-03-04T03:09:35.494Z,9.80
2019-03-04T03:10:12.093Z,9.70
2019-03-04T03:10:46.664Z,9.70
2019-03-04T03:11:21.253Z,9.70
2019-03-04T03:11:55.809Z,9.70
2019-03-04T03:12:30.320Z,9.70
2019-03-04T03:13:04.950Z,9.70
2019-03-04T03:13:39.513Z,9.70
2019-03-04T03:14:14.018Z,9.70
2019-03-04T03:14:48.578Z,9.70
2019-03-04T03:15:23.073Z,9.70
2019-03-04T03:15:57.831Z,9.70
2019-03-04T03:16:32.394Z,9.70
2019-03-04T03:17:06.956Z,9.70
2019-03-04T03:17:41.439Z,9.70
2019-03-04T03:18:15.944Z,9.70
2019-03-04T03:18:50.456Z,9.70
2019-03-04T03:19:25.083Z,9.70
2019-03-04T03:19:59.685Z,9.70
2019-03-04T03:20:34.185Z,9.70
2019-03-04T03:21:08.750Z,9.60
2019-03-04T03:21:43.397Z,9.70
2019-03-04T03:22:18.372Z,9.70
2019-03-04T03:22:54.492Z,9.70
2019-03-04T03:23:28.972Z,9.60
2019-03-04T03:24:03.486Z,9.60
2019-03-04T03:24:38.044Z,9.60
2019-03-04T03:25:14.075Z,9.60
2019-03-04T03:25:48.566Z,9.60
2019-03-04T03:26:23.061Z,9.60
2019-03-04T03:26:57.728Z,9.60
2019-03-04T03:27:32.258Z,9.50
2019-03-04T03:28:06.760Z,9.50
2019-03-04T03:28:41.307Z,9.50
2019-03-04T03:29:15.791Z,9.50
2019-03-04T03:29:52.010Z,9.50
2019-03-04T03:30:26.502Z,9.50
2019-03-04T03:31:01.064Z,9.50
2019-03-04T03:31:35.562Z,9.50
2019-03-04T03:32:10.075Z,9.50
2019-03-04T03:32:44.629Z,9.50
2019-03-04T03:33:19.538Z,9.50
2019-03-04T03:33:54.086Z,9.50
2019-03-04T03:34:28.665Z,9.50
2019-03-04T03:35:07.852Z,9.50
2019-03-04T03:35:39.576Z,9.50
2019-03-04T03:36:14.134Z,9.40
2019-03-04T03:36:48.975Z,9.40
2019-03-04T03:37:23.616Z,9.40
2019-03-04T03:37:58.117Z,9.40
2019-03-04T03:38:32.681Z,9.40
2019-03-04T03:39:07.234Z,9.40
2019-03-04T03:39:41.725Z,9.40
2019-03-04T03:40:17.691Z,9.40
2019-03-04T03:40:52.214Z,9.40
2019-03-04T03:41:26.798Z,9.40
2019-03-04T03:42:01.300Z,9.40
2019-03-04T03:42:36.090Z,9.40
2019-03-04T03:43:10.583Z,9.40
2019-03-04T03:43:45.145Z,9.40
2019-03-04T03:44:19.639Z,9.40
2019-03-04T03:44:54.123Z,9.40
2019-03-04T03:45:28.693Z,9.40
2019-03-04T03:46:03.441Z,9.40
2019-03-04T03:46:37.943Z,9.40
2019-03-04T03:47:12.512Z,9.40
2019-03-04T03:47:46.993Z,9.40
2019-03-04T03:48:21.496Z,9.40
2019-03-04T03:48:56.069Z,9.40
2019-03-04T03:49:30.562Z,9.40
2019-03-04T03:50:08.534Z,9.30
2019-03-04T03:50:43.093Z,9.30
2019-03-04T03:51:17.579Z,9.40
2019-03-04T03:51:52.070Z,9.40
2019-03-04T03:52:26.636Z,9.30
2019-03-04T03:53:01.203Z,9.30
2019-03-04T03:53:35.765Z,9.30
2019-03-04T03:54:10.253Z,9.30
2019-03-04T03:54:44.766Z,9.30
2019-03-04T03:55:19.404Z,9.20
2019-03-04T03:55:54.003Z,9.20
2019-03-04T03:56:28.815Z,9.20
2019-03-04T03:57:03.301Z,9.20
2019-03-04T03:57:37.802Z,9.20
2019-03-04T03:58:12.307Z,9.20
2019-03-04T03:58:46.870Z,9.20
2019-03-04T03:59:21.504Z,9.20
2019-03-04T03:59:56.058Z,9.20
2019-03-04T04:00:30.613Z,9.20
2019-03-04T04:01:05.094Z,9.20
2019-03-04T04:01:39.582Z,9.20
2019-03-04T04:02:14.366Z,9.20
2019-03-04T04:02:49.040Z,9.20
2019-03-04T04:03:23.586Z,9.20
2019-03-04T04:03:58.072Z,9.30
2019-03-04T04:04:32.580Z,9.30
2019-03-04T04:05:07.709Z,9.20
2019-03-04T04:05:42.264Z,9.20
2019-03-04T04:06:16.751Z,9.20
2019-03-04T04:06:51.249Z,9.20
2019-03-04T04:07:25.813Z,9.10
2019-03-04T04:08:00.309Z,9.10
2019-03-04T04:08:34.801Z,9.10
2019-03-04T04:09:09.279Z,9.10
2019-03-04T04:09:43.824Z,9.20
2019-03-04T04:10:21.759Z,9.20
2019-03-04T04:10:56.313Z,9.20
2019-03-04T04:11:30.886Z,9.20
2019-03-04T04:12:05.371Z,9.20
2019-03-04T04:12:40.034Z,9.20
2019-03-04T04:13:14.592Z,9.10
2019-03-04T04:13:49.078Z,9.10
2019-03-04T04:14:23.566Z,9.10
2019-03-04T04:14:58.137Z,9.10
2019-03-04T04:15:32.714Z,9.10
2019-03-04T04:16:07.300Z,9.00
2019-03-04T04:16:41.867Z,9.00
2019-03-04T04:17:16.426Z,9.00
2019-03-04T04:17:50.984Z,9.00
2019-03-04T04:18:25.474Z,9.00
2019-03-04T04:19:00.041Z,9.00
2019-03-04T04:19:34.541Z,9.00
2019-03-04T04:20:10.043Z,9.00
2019-03-04T04:20:44.626Z,9.00
2019-03-04T04:21:19.437Z,9.00
2019-03-04T04:21:54.126Z,9.00
2019-03-04T04:22:28.621Z,9.00
2019-03-04T04:23:03.144Z,9.00
2019-03-04T04:23:37.679Z,9.00
2019-03-04T04:24:12.228Z,9.10
2019-03-04T04:24:46.710Z,9.10
2019-03-04T04:25:21.200Z,9.10
2019-03-04T04:25:55.694Z,9.10
2019-03-04T04:26:30.256Z,9.10
2019-03-04T04:27:04.807Z,9.10
2019-03-04T04:27:39.304Z,9.10
2019-03-04T04:28:13.879Z,9.10
2019-03-04T04:28:49.243Z,9.10
2019-03-04T04:29:23.739Z,9.20
2019-03-04T04:29:58.228Z,9.20
2019-03-04T04:30:34.424Z,9.20
2019-03-04T04:31:08.915Z,9.20
2019-03-04T04:31:44.079Z,9.20
2019-03-04T04:32:18.706Z,9.20
2019-03-04T04:32:53.310Z,9.30
2019-03-04T04:33:27.839Z,9.30
2019-03-04T04:34:02.400Z,9.30
2019-03-04T04:34:36.911Z,9.30
2019-03-04T04:35:11.476Z,9.30
2019-03-04T04:35:46.053Z,9.30
2019-03-04T04:36:20.631Z,9.30
2019-03-04T04:36:55.106Z,9.30
2019-03-04T04:37:29.665Z,9.30
2019-03-04T04:38:04.155Z,9.30
2019-03-04T04:38:38.640Z,9.30
2019-03-04T04:39:13.480Z,9.30
2019-03-04T04:39:47.970Z,9.30
2019-03-04T04:40:22.489Z,9.30
2019-03-04T04:40:57.041Z,9.20
2019-03-04T04:41:31.534Z,9.20
2019-03-04T04:42:06.027Z,9.20
2019-03-04T04:42:40.534Z,9.20
2019-03-04T04:43:15.093Z,9.20
2019-03-04T04:43:49.589Z,9.20
2019-03-04T04:44:24.078Z,9.20
2019-03-04T04:44:58.584Z,9.20
2019-03-04T04:45:33.142Z,9.10
2019-03-04T04:46:07.625Z,9.10
2019-03-04T04:46:45.185Z,9.10
2019-03-04T04:47:19.684Z,9.10
2019-03-04T04:47:54.159Z,9.10
2019-03-04T04:48:28.636Z,9.20
2019-03-04T04:49:03.137Z,9.10
2019-03-04T04:49:37.633Z,9.10
2019-03-04T04:50:27.178Z,9.10
2019-03-04T04:51:01.743Z,9.10
2019-03-04T04:51:36.229Z,9.10
2019-03-04T04:52:10.739Z,9.10
2019-03-04T04:52:45.236Z,9.10
2019-03-04T04:53:19.723Z,9.10
2019-03-04T04:53:54.215Z,9.10
2019-03-04T04:54:28.708Z,9.10
2019-03-04T04:55:03.268Z,9.10
2019-03-04T04:55:37.760Z,9.10
2019-03-04T04:56:12.284Z,9.10
2019-03-04T04:56:46.827Z,9.10
2019-03-04T04:57:21.328Z,9.10
2019-03-04T04:57:55.813Z,9.00
2019-03-04T04:58:30.297Z,9.00
2019-03-04T04:59:05.078Z,9.00
2019-03-04T04:59:39.873Z,9.00
2019-03-04T05:00:23.260Z,9.00
2019-03-04T05:00:57.754Z,9.00
2019-03-04T05:01:32.275Z,9.00
2019-03-04T05:02:06.769Z,9.00
2019-03-04T05:02:41.262Z,9.00
2019-03-04T05:03:15.760Z,9.00
2019-03-04T05:03:50.254Z,9.00
2019-03-04T05:04:24.748Z,9.00
2019-03-04T05:04:59.242Z,9.00
2019-03-04T05:05:33.792Z,9.00
2019-03-04T05:06:08.287Z,9.00
2019-03-04T05:06:42.776Z,9.00
2019-03-04T05:07:17.286Z,9.00
2019-03-04T05:07:51.840Z,9.00
2019-03-04T05:08:26.334Z,9.00
2019-03-04T05:09:00.822Z,9.00
2019-03-04T05:09:35.315Z,9.00
2019-03-04T05:10:17.772Z,9.00
2019-03-04T05:10:52.377Z,9.00
2019-03-04T05:11:26.866Z,9.00
2019-03-04T05:12:01.350Z,9.00
2019-03-04T05:12:35.857Z,9.00
2019-03-04T05:13:10.365Z,9.00
2019-03-04T05:13:44.994Z,9.00
2019-03-04T05:14:19.491Z,9.00
2019-03-04T05:14:54.066Z,9.10
2019-03-04T05:15:28.537Z,9.10
2019-03-04T05:16:03.031Z,9.10
2019-03-04T05:16:37.509Z,9.10
2019-03-04T05:17:11.994Z,9.10
2019-03-04T05:17:46.543Z,9.10
2019-03-04T05:18:21.048Z,9.10
2019-03-04T05:18:55.814Z,9.10
2019-03-04T05:19:30.408Z,9.10
2019-03-04T05:20:10.684Z,9.10
2019-03-04T05:20:45.251Z,9.00
2019-03-04T05:21:19.811Z,9.00
2019-03-04T05:21:54.296Z,9.00
2019-03-04T05:22:28.793Z,9.00
2019-03-04T05:23:03.284Z,9.00
2019-03-04T05:23:37.798Z,9.00
2019-03-04T05:24:12.281Z,9.00
2019-03-04T05:24:46.778Z,9.00
2019-03-04T05:25:21.299Z,9.00
2019-03-04T05:25:55.786Z,9.00
2019-03-04T05:26:30.289Z,9.00
2019-03-04T05:27:04.802Z,8.90
2019-03-04T05:27:39.348Z,8.90
2019-03-04T05:28:13.842Z,9.00
2019-03-04T05:28:48.329Z,9.00
2019-03-04T05:29:22.926Z,9.00
2019-03-04T05:29:57.485Z,9.00
2019-03-04T05:30:31.991Z,9.00
2019-03-04T05:31:06.551Z,9.00
2019-03-04T05:31:41.042Z,9.00
2019-03-04T05:32:15.529Z,9.00
2019-03-04T05:32:50.088Z,9.00
2019-03-04T05:33:24.581Z,9.00
2019-03-04T05:33:59.057Z,9.00
2019-03-04T05:34:33.554Z,9.00
2019-03-04T05:35:08.138Z,9.00
2019-03-04T05:35:42.774Z,9.00
2019-03-04T05:36:17.272Z,9.10
2019-03-04T05:36:51.846Z,9.00
2019-03-04T05:37:26.333Z,9.10
2019-03-04T05:38:00.837Z,9.10
2019-03-04T05:38:35.398Z,9.10
2019-03-04T05:39:09.877Z,9.10
2019-03-04T05:39:44.362Z,9.10
2019-03-04T05:40:21.071Z,9.20
2019-03-04T05:40:55.655Z,9.20
2019-03-04T05:41:30.140Z,9.20
2019-03-04T05:42:04.625Z,9.20
2019-03-04T05:42:39.385Z,9.20
2019-03-04T05:43:13.873Z,9.20
2019-03-04T05:43:48.365Z,9.20
2019-03-04T05:44:22.932Z,9.20
2019-03-04T05:44:57.434Z,9.20
2019-03-04T05:45:32.021Z,9.20
2019-03-04T05:46:06.499Z,9.20
2019-03-04T05:46:41.006Z,9.20
2019-03-04T05:47:15.499Z,9.30
2019-03-04T05:47:50.000Z,9.20
2019-03-04T05:48:24.857Z,9.30
2019-03-04T05:48:59.467Z,9.30
2019-03-04T05:49:34.041Z,9.30
2019-03-04T05:50:11.672Z,9.30
2019-03-04T05:50:46.233Z,9.30
2019-03-04T05:51:23.585Z,9.30
2019-03-04T05:51:58.381Z,9.30
2019-03-04T05:52:33.050Z,9.30
2019-03-04T05:53:07.802Z,9.30
2019-03-04T05:53:42.545Z,9.30
2019-03-04T05:54:17.279Z,9.40
2019-03-04T05:54:52.221Z,9.40
2019-03-04T05:55:28.246Z,9.40
2019-03-04T05:56:05.621Z,9.40
2019-03-04T05:56:40.218Z,9.40
2019-03-04T05:57:14.958Z,9.40
2019-03-04T05:57:51.539Z,9.40
2019-03-04T05:58:26.207Z,9.40
2019-03-04T05:59:00.787Z,9.40
2019-03-04T05:59:35.649Z,9.50
2019-03-04T06:00:16.219Z,9.50
2019-03-04T06:01:10.008Z,9.50
2019-03-04T06:01:46.031Z,9.50
2019-03-04T06:02:20.655Z,9.50
2019-03-04T06:03:03.721Z,9.40
2019-03-04T06:03:38.489Z,9.50
2019-03-04T06:04:13.326Z,9.40
2019-03-04T06:04:47.999Z,9.40
2019-03-04T06:05:25.596Z,9.40
2019-03-04T06:06:00.221Z,9.40
2019-03-04T06:06:52.823Z,9.40
2019-03-04T06:07:35.949Z,9.40
2019-03-04T06:08:14.044Z,9.40
2019-03-04T06:08:48.913Z,9.40
2019-03-04T06:09:23.629Z,9.40
2019-03-04T06:10:01.373Z,9.40
2019-03-04T06:10:40.087Z,9.40
2019-03-04T06:11:16.087Z,9.40
2019-03-04T06:11:50.981Z,9.40
2019-03-04T06:12:29.542Z,9.40
2019-03-04T06:13:04.339Z,9.40
2019-03-04T06:13:39.193Z,9.40
2019-03-04T06:14:13.947Z,9.40
2019-03-04T06:14:49.758Z,9.40
2019-03-04T06:15:24.994Z,9.50
2019-03-04T06:16:02.185Z,9.40
2019-03-04T06:16:46.815Z,9.40
2019-03-04T06:17:12.980Z,9.40
2019-03-04T06:17:47.536Z,9.40
2019-03-04T06:18:22.036Z,9.40
2019-03-04T06:18:56.517Z,9.40
2019-03-04T06:19:30.992Z,9.40
2019-03-04T06:20:08.532Z,9.40
2019-03-04T06:20:43.049Z,9.50
2019-03-04T06:21:17.545Z,9.50
2019-03-04T06:21:52.122Z,9.50
2019-03-04T06:22:26.693Z,9.50
2019-03-04T06:23:01.176Z,9.50
2019-03-04T06:23:35.694Z,9.50
2019-03-04T06:24:10.184Z,9.50
2019-03-04T06:24:44.749Z,9.50
2019-03-04T06:25:24.528Z,9.50
2019-03-04T06:25:59.084Z,9.50
2019-03-04T06:26:33.752Z,9.50
2019-03-04T06:27:08.317Z,9.50
2019-03-04T06:27:42.810Z,9.50
2019-03-04T06:28:17.295Z,9.50
2019-03-04T06:28:51.803Z,9.50
2019-03-04T06:29:26.465Z,9.50
2019-03-04T06:30:01.006Z,9.50
2019-03-04T06:30:35.726Z,9.50
2019-03-04T06:31:10.213Z,9.50
2019-03-04T06:31:44.704Z,9.50
2019-03-04T06:32:19.214Z,9.50
2019-03-04T06:32:54.056Z,9.60
2019-03-04T06:33:28.551Z,9.60
2019-03-04T06:34:03.055Z,9.60
2019-03-04T06:34:37.608Z,9.60
2019-03-04T06:35:13.743Z,9.60
2019-03-04T06:35:48.225Z,9.60
2019-03-04T06:36:22.712Z,9.60
2019-03-04T06:36:57.209Z,9.60
2019-03-04T06:37:31.702Z,9.60
2019-03-04T06:38:06.197Z,9.60
2019-03-04T06:38:40.705Z,9.60
2019-03-04T06:39:15.201Z,9.60
2019-03-04T06:39:49.695Z,9.60
2019-03-04T06:40:24.202Z,9.60
2019-03-04T06:40:58.691Z,9.60
2019-03-04T06:41:33.241Z,9.60
2019-03-04T06:42:07.773Z,9.60
2019-03-04T06:42:42.362Z,9.60
2019-03-04T06:43:16.921Z,9.60
2019-03-04T06:43:51.418Z,9.60
2019-03-04T06:44:26.005Z,9.60
2019-03-04T06:45:00.565Z,9.70
2019-03-04T06:45:35.332Z,9.70
2019-03-04T06:46:09.882Z,9.70
2019-03-04T06:46:44.613Z,9.70
2019-03-04T06:47:19.119Z,9.70
2019-03-04T06:47:53.617Z,9.70
2019-03-04T06:48:28.175Z,9.80
2019-03-04T06:49:02.666Z,9.80
2019-03-04T06:49:37.175Z,9.80
2019-03-04T06:50:34.169Z,9.80
2019-03-04T06:51:14.697Z,9.80
2019-03-04T06:51:49.257Z,9.80
2019-03-04T06:52:24.415Z,9.80
2019-03-04T06:53:00.354Z,9.80
2019-03-04T06:53:46.800Z,9.80
2019-03-04T06:54:26.976Z,9.90
2019-03-04T06:55:07.124Z,9.80
2019-03-04T06:56:05.285Z,9.90
2019-03-04T06:56:57.489Z,9.90
2019-03-04T06:57:31.975Z,9.90
2019-03-04T06:58:06.469Z,10.00
2019-03-04T06:58:58.900Z,10.00
2019-03-04T06:59:36.476Z,10.00
2019-03-04T07:00:14.046Z,9.90
2019-03-04T07:00:50.795Z,9.90
2019-03-04T07:01:28.348Z,10.00
2019-03-04T07:02:12.429Z,9.90
2019-03-04T07:02:47.279Z,10.00
2019-03-04T07:03:22.106Z,10.00
2019-03-04T07:03:59.811Z,10.00
2019-03-04T07:04:53.625Z,10.00
2019-03-04T07:05:45.203Z,10.00
2019-03-04T07:06:19.800Z,10.00
2019-03-04T07:06:54.372Z,10.10
2019-03-04T07:07:28.945Z,10.10
2019-03-04T07:08:03.510Z,10.10
2019-03-04T07:08:41.081Z,10.10
2019-03-04T07:09:15.936Z,10.10
2019-03-04T07:09:50.534Z,10.10
2019-03-04T07:10:25.042Z,10.10
2019-03-04T07:10:59.620Z,10.10
2019-03-04T07:11:34.189Z,10.10
2019-03-04T07:12:08.697Z,10.10
2019-03-04T07:12:43.193Z,10.10
2019-03-04T07:13:17.703Z,10.10
2019-03-04T07:13:52.285Z,10.10
2019-03-04T07:14:26.850Z,10.10
2019-03-04T07:15:01.398Z,10.10
2019-03-04T07:15:35.961Z,10.10
2019-03-04T07:16:10.473Z,10.10
2019-03-04T07:16:44.984Z,10.20
2019-03-04T07:17:19.482Z,10.10
2019-03-04T07:17:53.982Z,10.10
2019-03-04T07:18:28.493Z,10.10
2019-03-04T07:19:04.139Z,10.10
2019-03-04T07:19:38.707Z,10.10
2019-03-04T07:20:20.359Z,10.10
2019-03-04T07:20:54.937Z,10.10
2019-03-04T07:21:29.965Z,10.10
2019-03-04T07:22:04.778Z,10.10
2019-03-04T07:22:39.362Z,10.10
2019-03-04T07:23:13.884Z,10.10
2019-03-04T07:23:48.513Z,10.10
2019-03-04T07:24:23.008Z,10.20
2019-03-04T07:24:57.526Z,10.20
2019-03-04T07:25:32.010Z,10.20
2019-03-04T07:26:06.522Z,10.20
2019-03-04T07:26:41.012Z,10.20
2019-03-04T07:27:15.518Z,10.20
2019-03-04T07:27:50.079Z,10.20
2019-03-04T07:28:24.576Z,10.30
2019-03-04T07:28:59.093Z,10.30
2019-03-04T07:29:33.589Z,10.30
2019-03-04T07:30:13.947Z,10.30
2019-03-04T07:30:48.525Z,10.30
2019-03-04T07:31:23.080Z,10.30
2019-03-04T07:31:57.578Z,10.40
2019-03-04T07:32:32.159Z,10.40
2019-03-04T07:33:06.680Z,10.40
2019-03-04T07:33:41.258Z,10.40
2019-03-04T07:34:15.750Z,10.40
2019-03-04T07:34:51.186Z,10.40
2019-03-04T07:35:25.695Z,10.40
2019-03-04T07:36:00.192Z,10.40
2019-03-04T07:36:34.715Z,10.40
2019-03-04T07:37:09.212Z,10.40
2019-03-04T07:37:43.701Z,10.40
2019-03-04T07:38:23.952Z,10.50
2019-03-04T07:38:58.662Z,10.40
2019-03-04T07:39:33.156Z,10.40
2019-03-04T07:40:13.820Z,10.40